Weather at Middle Pymore Farm Airstrip (Private)

Public forecast

Using degrees Celsius for public forecast. Weather courtesy of forecast.io.

Closest aviation weather report (METAR) to Middle Pymore Farm Airstrip (Private)

Closest report is RNAS Yeovilton, 16.2 nm (29.9 km) NNE. Retrieved 2021/04/16 20:50 UTC (22 minutes ago):

EGDY 162050Z AUTO 08002KT 9999 NCD 05/M01 Q1030

Closest aviation forecast (TAF) to Middle Pymore Farm Airstrip (Private)

Forecast is more than 12 hours old.

Closest forecast is RNAS Yeovilton, 16.2 nm (29.9 km) NNE. Retrieved 2020/10/05 06:30 UTC (6 months ago):

TAF TAF EGDY 051025Z 0506/0518 CNL